sensor_id;sensor_type;location;lat;lon;timestamp;P1;durP1;ratioP1;P2;durP2;ratioP2
39078;SDS011;24829;49.208;12.080;2022-07-03T00:00:27;2.28;;;1.58;;
39078;SDS011;24829;49.208;12.080;2022-07-03T00:02:53;3.35;;;1.52;;
39078;SDS011;24829;49.208;12.080;2022-07-03T00:05:19;5.63;;;1.70;;
39078;SDS011;24829;49.208;12.080;2022-07-03T00:07:45;7.38;;;1.92;;
39078;SDS011;24829;49.208;12.080;2022-07-03T00:10:10;2.10;;;1.83;;
39078;SDS011;24829;49.208;12.080;2022-07-03T00:12:36;9.93;;;2.00;;
39078;SDS011;24829;49.208;12.080;2022-07-03T00:15:02;3.05;;;1.70;;
39078;SDS011;24829;49.208;12.080;2022-07-03T00:17:28;3.75;;;2.05;;
39078;SDS011;24829;49.208;12.080;2022-07-03T00:19:54;3.70;;;1.90;;
39078;SDS011;24829;49.208;12.080;2022-07-03T00:22:20;2.92;;;2.17;;
39078;SDS011;24829;49.208;12.080;2022-07-03T00:24:50;4.13;;;2.00;;
39078;SDS011;24829;49.208;12.080;2022-07-03T00:27:20;4.72;;;2.47;;
39078;SDS011;24829;49.208;12.080;2022-07-03T00:29:48;2.80;;;2.30;;
39078;SDS011;24829;49.208;12.080;2022-07-03T00:32:24;4.10;;;2.42;;
39078;SDS011;24829;49.208;12.080;2022-07-03T00:34:51;3.25;;;2.28;;
39078;SDS011;24829;49.208;12.080;2022-07-03T00:37:19;2.75;;;2.40;;
39078;SDS011;24829;49.208;12.080;2022-07-03T00:39:45;3.58;;;2.60;;
39078;SDS011;24829;49.208;12.080;2022-07-03T00:42:13;4.72;;;2.70;;
39078;SDS011;24829;49.208;12.080;2022-07-03T00:44:46;3.92;;;2.60;;
39078;SDS011;24829;49.208;12.080;2022-07-03T00:47:17;5.05;;;2.60;;
39078;SDS011;24829;49.208;12.080;2022-07-03T00:49:47;6.18;;;2.97;;
39078;SDS011;24829;49.208;12.080;2022-07-03T00:52:15;6.00;;;3.80;;
39078;SDS011;24829;49.208;12.080;2022-07-03T00:54:43;5.97;;;3.90;;
39078;SDS011;24829;49.208;12.080;2022-07-03T00:57:15;6.20;;;3.40;;
39078;SDS011;24829;49.208;12.080;2022-07-03T00:59:41;4.90;;;3.40;;
39078;SDS011;24829;49.208;12.080;2022-07-03T01:02:08;3.83;;;2.90;;
39078;SDS011;24829;49.208;12.080;2022-07-03T01:05:02;6.30;;;2.92;;
39078;SDS011;24829;49.208;12.080;2022-07-03T01:07:53;4.25;;;2.72;;
39078;SDS011;24829;49.208;12.080;2022-07-03T01:10:47;7.90;;;3.17;;
39078;SDS011;24829;49.208;12.080;2022-07-03T01:13:18;5.03;;;2.70;;
39078;SDS011;24829;49.208;12.080;2022-07-03T01:18:35;6.43;;;3.05;;
39078;SDS011;24829;49.208;12.080;2022-07-03T01:21:35;5.65;;;3.22;;
39078;SDS011;24829;49.208;12.080;2022-07-03T01:26:45;7.05;;;3.00;;
39078;SDS011;24829;49.208;12.080;2022-07-03T01:29:22;4.85;;;3.40;;
39078;SDS011;24829;49.208;12.080;2022-07-03T01:34:21;3.20;;;2.90;;
39078;SDS011;24829;49.208;12.080;2022-07-03T01:36:50;5.30;;;3.10;;
39078;SDS011;24829;49.208;12.080;2022-07-03T01:41:50;4.78;;;3.42;;
39078;SDS011;24829;49.208;12.080;2022-07-03T01:44:18;8.35;;;3.47;;
39078;SDS011;24829;49.208;12.080;2022-07-03T01:46:46;8.63;;;4.00;;
39078;SDS011;24829;49.208;12.080;2022-07-03T01:49:15;3.70;;;3.33;;
39078;SDS011;24829;49.208;12.080;2022-07-03T01:51:41;4.65;;;3.47;;
39078;SDS011;24829;49.208;12.080;2022-07-03T01:54:09;3.83;;;3.28;;
39078;SDS011;24829;49.208;12.080;2022-07-03T01:56:35;4.43;;;3.35;;
39078;SDS011;24829;49.208;12.080;2022-07-03T01:59:01;5.82;;;4.15;;
39078;SDS011;24829;49.208;12.080;2022-07-03T02:09:40;4.03;;;2.90;;
39078;SDS011;24829;49.208;12.080;2022-07-03T02:12:13;5.40;;;3.40;;
39078;SDS011;24829;49.208;12.080;2022-07-03T02:14:39;6.65;;;3.80;;
39078;SDS011;24829;49.208;12.080;2022-07-03T02:17:16;7.40;;;3.08;;
39078;SDS011;24829;49.208;12.080;2022-07-03T02:19:53;7.93;;;4.15;;
39078;SDS011;24829;49.208;12.080;2022-07-03T02:22:25;6.78;;;3.75;;
39078;SDS011;24829;49.208;12.080;2022-07-03T02:24:53;6.07;;;3.20;;
39078;SDS011;24829;49.208;12.080;2022-07-03T02:27:41;4.40;;;3.58;;
39078;SDS011;24829;49.208;12.080;2022-07-03T02:30:09;4.88;;;3.50;;
39078;SDS011;24829;49.208;12.080;2022-07-03T02:32:36;4.70;;;3.58;;
39078;SDS011;24829;49.208;12.080;2022-07-03T02:35:25;4.15;;;2.92;;
39078;SDS011;24829;49.208;12.080;2022-07-03T02:38:11;4.68;;;3.08;;
39078;SDS011;24829;49.208;12.080;2022-07-03T02:43:41;5.38;;;3.53;;
39078;SDS011;24829;49.208;12.080;2022-07-03T02:49:20;4.72;;;3.53;;
39078;SDS011;24829;49.208;12.080;2022-07-03T02:55:02;5.20;;;3.70;;
39078;SDS011;24829;49.208;12.080;2022-07-03T02:57:37;7.13;;;4.22;;
39078;SDS011;24829;49.208;12.080;2022-07-03T03:00:05;6.43;;;4.30;;
39078;SDS011;24829;49.208;12.080;2022-07-03T03:08:28;9.75;;;4.78;;
39078;SDS011;24829;49.208;12.080;2022-07-03T03:13:33;10.77;;;4.20;;
39078;SDS011;24829;49.208;12.080;2022-07-03T03:16:10;5.78;;;3.97;;
39078;SDS011;24829;49.208;12.080;2022-07-03T03:18:38;5.40;;;3.78;;
39078;SDS011;24829;49.208;12.080;2022-07-03T03:21:06;7.78;;;4.20;;
39078;SDS011;24829;49.208;12.080;2022-07-03T03:23:43;6.05;;;3.55;;
39078;SDS011;24829;49.208;12.080;2022-07-03T03:26:17;10.55;;;4.00;;
39078;SDS011;24829;49.208;12.080;2022-07-03T03:28:47;5.78;;;4.10;;
39078;SDS011;24829;49.208;12.080;2022-07-03T03:31:14;4.50;;;3.58;;
39078;SDS011;24829;49.208;12.080;2022-07-03T03:33:40;7.03;;;4.22;;
39078;SDS011;24829;49.208;12.080;2022-07-03T03:36:13;4.60;;;3.55;;
39078;SDS011;24829;49.208;12.080;2022-07-03T03:38:43;5.35;;;3.83;;
39078;SDS011;24829;49.208;12.080;2022-07-03T03:41:09;5.00;;;3.92;;
39078;SDS011;24829;49.208;12.080;2022-07-03T03:43:36;7.32;;;3.65;;
39078;SDS011;24829;49.208;12.080;2022-07-03T03:46:03;4.40;;;4.00;;
39078;SDS011;24829;49.208;12.080;2022-07-03T03:48:30;5.40;;;3.63;;
39078;SDS011;24829;49.208;12.080;2022-07-03T03:50:57;6.82;;;4.22;;
39078;SDS011;24829;49.208;12.080;2022-07-03T03:53:23;8.85;;;3.60;;
39078;SDS011;24829;49.208;12.080;2022-07-03T03:55:59;5.32;;;3.65;;
39078;SDS011;24829;49.208;12.080;2022-07-03T03:58:26;4.28;;;3.80;;
39078;SDS011;24829;49.208;12.080;2022-07-03T04:00:54;4.75;;;4.25;;
39078;SDS011;24829;49.208;12.080;2022-07-03T04:03:24;5.32;;;3.75;;
39078;SDS011;24829;49.208;12.080;2022-07-03T04:05:50;6.53;;;3.65;;
39078;SDS011;24829;49.208;12.080;2022-07-03T04:08:16;4.65;;;3.47;;
39078;SDS011;24829;49.208;12.080;2022-07-03T04:10:42;7.68;;;3.55;;
39078;SDS011;24829;49.208;12.080;2022-07-03T04:13:07;4.95;;;3.80;;
39078;SDS011;24829;49.208;12.080;2022-07-03T04:15:33;6.05;;;3.13;;
39078;SDS011;24829;49.208;12.080;2022-07-03T04:17:58;5.90;;;3.05;;
39078;SDS011;24829;49.208;12.080;2022-07-03T04:20:24;5.47;;;2.90;;
39078;SDS011;24829;49.208;12.080;2022-07-03T04:22:49;4.10;;;3.13;;
39078;SDS011;24829;49.208;12.080;2022-07-03T04:25:16;3.40;;;2.40;;
39078;SDS011;24829;49.208;12.080;2022-07-03T04:27:42;3.92;;;3.00;;
39078;SDS011;24829;49.208;12.080;2022-07-03T04:30:08;2.72;;;2.45;;
39078;SDS011;24829;49.208;12.080;2022-07-03T04:32:38;3.45;;;2.45;;
39078;SDS011;24829;49.208;12.080;2022-07-03T04:35:04;3.22;;;2.40;;
39078;SDS011;24829;49.208;12.080;2022-07-03T04:37:30;3.33;;;2.22;;
39078;SDS011;24829;49.208;12.080;2022-07-03T04:39:55;4.18;;;2.42;;
39078;SDS011;24829;49.208;12.080;2022-07-03T04:42:21;2.75;;;2.50;;
39078;SDS011;24829;49.208;12.080;2022-07-03T04:44:47;5.22;;;2.90;;
39078;SDS011;24829;49.208;12.080;2022-07-03T04:47:12;4.90;;;2.78;;
39078;SDS011;24829;49.208;12.080;2022-07-03T04:49:39;3.38;;;2.50;;
39078;SDS011;24829;49.208;12.080;2022-07-03T04:52:05;4.18;;;2.63;;
39078;SDS011;24829;49.208;12.080;2022-07-03T04:54:31;4.40;;;2.45;;
39078;SDS011;24829;49.208;12.080;2022-07-03T04:56:57;3.95;;;2.65;;
39078;SDS011;24829;49.208;12.080;2022-07-03T04:59:22;4.13;;;2.35;;
39078;SDS011;24829;49.208;12.080;2022-07-03T05:01:48;6.38;;;3.00;;
39078;SDS011;24829;49.208;12.080;2022-07-03T05:04:14;5.28;;;2.70;;
39078;SDS011;24829;49.208;12.080;2022-07-03T05:06:40;2.15;;;1.75;;
39078;SDS011;24829;49.208;12.080;2022-07-03T05:09:06;5.65;;;2.72;;
39078;SDS011;24829;49.208;12.080;2022-07-03T05:11:32;2.58;;;2.38;;
39078;SDS011;24829;49.208;12.080;2022-07-03T05:13:58;3.42;;;2.55;;
39078;SDS011;24829;49.208;12.080;2022-07-03T05:16:23;5.70;;;2.20;;
39078;SDS011;24829;49.208;12.080;2022-07-03T05:18:49;5.10;;;2.50;;
39078;SDS011;24829;49.208;12.080;2022-07-03T05:21:14;3.83;;;2.53;;
39078;SDS011;24829;49.208;12.080;2022-07-03T05:23:40;5.65;;;2.67;;
39078;SDS011;24829;49.208;12.080;2022-07-03T05:26:05;2.70;;;1.98;;
39078;SDS011;24829;49.208;12.080;2022-07-03T05:28:31;3.85;;;2.35;;
39078;SDS011;24829;49.208;12.080;2022-07-03T05:30:56;5.10;;;2.05;;
39078;SDS011;24829;49.208;12.080;2022-07-03T05:33:22;3.33;;;2.17;;
39078;SDS011;24829;49.208;12.080;2022-07-03T05:35:48;2.17;;;1.90;;
39078;SDS011;24829;49.208;12.080;2022-07-03T05:38:13;2.10;;;1.90;;
39078;SDS011;24829;49.208;12.080;2022-07-03T05:40:59;2.17;;;1.65;;
39078;SDS011;24829;49.208;12.080;2022-07-03T05:43:24;5.32;;;2.08;;
39078;SDS011;24829;49.208;12.080;2022-07-03T05:45:50;2.55;;;1.90;;
39078;SDS011;24829;49.208;12.080;2022-07-03T05:48:15;4.20;;;2.40;;
39078;SDS011;24829;49.208;12.080;2022-07-03T05:50:41;2.95;;;1.70;;
39078;SDS011;24829;49.208;12.080;2022-07-03T05:53:06;2.38;;;1.85;;
39078;SDS011;24829;49.208;12.080;2022-07-03T05:55:32;3.92;;;2.00;;
39078;SDS011;24829;49.208;12.080;2022-07-03T05:57:57;3.42;;;2.00;;
39078;SDS011;24829;49.208;12.080;2022-07-03T06:00:23;5.60;;;1.60;;
39078;SDS011;24829;49.208;12.080;2022-07-03T06:02:48;4.10;;;1.30;;
39078;SDS011;24829;49.208;12.080;2022-07-03T06:05:14;1.83;;;1.38;;
39078;SDS011;24829;49.208;12.080;2022-07-03T06:07:39;2.30;;;1.40;;
39078;SDS011;24829;49.208;12.080;2022-07-03T06:10:05;2.33;;;1.70;;
39078;SDS011;24829;49.208;12.080;2022-07-03T06:12:31;3.50;;;1.60;;
39078;SDS011;24829;49.208;12.080;2022-07-03T06:14:56;2.08;;;1.45;;
39078;SDS011;24829;49.208;12.080;2022-07-03T06:17:22;3.78;;;1.40;;
39078;SDS011;24829;49.208;12.080;2022-07-03T06:19:47;2.13;;;1.42;;
39078;SDS011;24829;49.208;12.080;2022-07-03T06:22:13;1.50;;;1.25;;
39078;SDS011;24829;49.208;12.080;2022-07-03T06:24:39;3.42;;;1.60;;
39078;SDS011;24829;49.208;12.080;2022-07-03T06:27:04;2.03;;;1.52;;
39078;SDS011;24829;49.208;12.080;2022-07-03T06:29:30;5.07;;;1.77;;
39078;SDS011;24829;49.208;12.080;2022-07-03T06:31:55;1.98;;;1.42;;
39078;SDS011;24829;49.208;12.080;2022-07-03T06:34:21;2.35;;;1.58;;
39078;SDS011;24829;49.208;12.080;2022-07-03T06:36:47;2.33;;;1.50;;
39078;SDS011;24829;49.208;12.080;2022-07-03T06:39:12;2.47;;;1.50;;
39078;SDS011;24829;49.208;12.080;2022-07-03T06:41:38;2.30;;;1.40;;
39078;SDS011;24829;49.208;12.080;2022-07-03T06:44:03;2.28;;;1.65;;
39078;SDS011;24829;49.208;12.080;2022-07-03T06:46:29;2.47;;;1.65;;
39078;SDS011;24829;49.208;12.080;2022-07-03T06:48:54;2.90;;;1.83;;
39078;SDS011;24829;49.208;12.080;2022-07-03T06:51:20;2.05;;;1.30;;
39078;SDS011;24829;49.208;12.080;2022-07-03T06:53:46;3.10;;;1.60;;
39078;SDS011;24829;49.208;12.080;2022-07-03T06:56:11;2.10;;;1.42;;
39078;SDS011;24829;49.208;12.080;2022-07-03T06:58:37;2.05;;;1.48;;
39078;SDS011;24829;49.208;12.080;2022-07-03T07:01:02;1.63;;;1.40;;
39078;SDS011;24829;49.208;12.080;2022-07-03T07:03:28;5.07;;;1.50;;
39078;SDS011;24829;49.208;12.080;2022-07-03T07:05:53;3.17;;;1.30;;
39078;SDS011;24829;49.208;12.080;2022-07-03T07:08:19;3.47;;;1.23;;
39078;SDS011;24829;49.208;12.080;2022-07-03T07:10:44;1.58;;;1.20;;
39078;SDS011;24829;49.208;12.080;2022-07-03T07:13:10;2.17;;;1.50;;
39078;SDS011;24829;49.208;12.080;2022-07-03T07:15:35;4.90;;;1.40;;
39078;SDS011;24829;49.208;12.080;2022-07-03T07:18:01;2.80;;;1.30;;
39078;SDS011;24829;49.208;12.080;2022-07-03T07:20:26;3.10;;;1.83;;
39078;SDS011;24829;49.208;12.080;2022-07-03T07:22:52;2.42;;;1.25;;
39078;SDS011;24829;49.208;12.080;2022-07-03T07:25:17;4.30;;;1.50;;
39078;SDS011;24829;49.208;12.080;2022-07-03T07:27:43;3.35;;;1.33;;
39078;SDS011;24829;49.208;12.080;2022-07-03T07:30:09;1.83;;;1.33;;
39078;SDS011;24829;49.208;12.080;2022-07-03T07:32:34;1.65;;;1.23;;
39078;SDS011;24829;49.208;12.080;2022-07-03T07:35:00;1.95;;;1.48;;
39078;SDS011;24829;49.208;12.080;2022-07-03T07:37:26;2.05;;;1.40;;
39078;SDS011;24829;49.208;12.080;2022-07-03T07:39:51;3.33;;;1.30;;
39078;SDS011;24829;49.208;12.080;2022-07-03T07:42:17;2.65;;;1.40;;
39078;SDS011;24829;49.208;12.080;2022-07-03T07:44:42;2.60;;;1.58;;
39078;SDS011;24829;49.208;12.080;2022-07-03T07:47:08;2.78;;;1.60;;
39078;SDS011;24829;49.208;12.080;2022-07-03T07:49:33;3.92;;;1.27;;
39078;SDS011;24829;49.208;12.080;2022-07-03T07:51:59;5.80;;;1.52;;
39078;SDS011;24829;49.208;12.080;2022-07-03T07:54:24;2.25;;;1.20;;
39078;SDS011;24829;49.208;12.080;2022-07-03T07:56:50;1.90;;;1.20;;
39078;SDS011;24829;49.208;12.080;2022-07-03T07:59:15;2.28;;;1.27;;
39078;SDS011;24829;49.208;12.080;2022-07-03T08:01:41;1.88;;;1.10;;
39078;SDS011;24829;49.208;12.080;2022-07-03T08:04:25;2.22;;;1.25;;
39078;SDS011;24829;49.208;12.080;2022-07-03T08:07:26;2.10;;;1.20;;
39078;SDS011;24829;49.208;12.080;2022-07-03T08:09:51;3.03;;;1.25;;
39078;SDS011;24829;49.208;12.080;2022-07-03T08:12:18;3.63;;;1.27;;
39078;SDS011;24829;49.208;12.080;2022-07-03T08:14:44;3.75;;;1.40;;
39078;SDS011;24829;49.208;12.080;2022-07-03T08:17:10;2.55;;;1.33;;
39078;SDS011;24829;49.208;12.080;2022-07-03T08:19:36;3.95;;;1.20;;
39078;SDS011;24829;49.208;12.080;2022-07-03T08:22:01;2.45;;;1.10;;
39078;SDS011;24829;49.208;12.080;2022-07-03T08:24:27;2.00;;;1.50;;
39078;SDS011;24829;49.208;12.080;2022-07-03T08:26:52;3.38;;;1.25;;
39078;SDS011;24829;49.208;12.080;2022-07-03T08:29:18;1.45;;;1.10;;
39078;SDS011;24829;49.208;12.080;2022-07-03T08:31:44;2.75;;;1.10;;
39078;SDS011;24829;49.208;12.080;2022-07-03T08:34:09;2.85;;;1.30;;
39078;SDS011;24829;49.208;12.080;2022-07-03T08:36:39;4.03;;;1.20;;
39078;SDS011;24829;49.208;12.080;2022-07-03T08:39:06;2.83;;;1.20;;
39078;SDS011;24829;49.208;12.080;2022-07-03T08:41:31;3.58;;;1.30;;
39078;SDS011;24829;49.208;12.080;2022-07-03T08:43:59;2.97;;;1.35;;
39078;SDS011;24829;49.208;12.080;2022-07-03T08:46:26;1.83;;;1.10;;
39078;SDS011;24829;49.208;12.080;2022-07-03T08:48:52;3.33;;;1.25;;
39078;SDS011;24829;49.208;12.080;2022-07-03T08:51:19;2.45;;;1.38;;
39078;SDS011;24829;49.208;12.080;2022-07-03T08:53:47;1.70;;;1.13;;
39078;SDS011;24829;49.208;12.080;2022-07-03T08:56:13;3.60;;;1.02;;
39078;SDS011;24829;49.208;12.080;2022-07-03T08:58:39;2.25;;;1.33;;
39078;SDS011;24829;49.208;12.080;2022-07-03T09:01:05;4.28;;;1.20;;
39078;SDS011;24829;49.208;12.080;2022-07-03T09:03:31;2.90;;;1.20;;
39078;SDS011;24829;49.208;12.080;2022-07-03T09:05:57;2.25;;;1.20;;
39078;SDS011;24829;49.208;12.080;2022-07-03T09:08:23;3.03;;;1.20;;
39078;SDS011;24829;49.208;12.080;2022-07-03T09:10:51;1.27;;;1.17;;
39078;SDS011;24829;49.208;12.080;2022-07-03T09:13:17;1.67;;;1.10;;
39078;SDS011;24829;49.208;12.080;2022-07-03T09:15:42;1.38;;;1.17;;
39078;SDS011;24829;49.208;12.080;2022-07-03T09:18:09;1.90;;;0.98;;
39078;SDS011;24829;49.208;12.080;2022-07-03T09:20:38;5.75;;;1.33;;
39078;SDS011;24829;49.208;12.080;2022-07-03T09:28:23;1.10;;;0.98;;
39078;SDS011;24829;49.208;12.080;2022-07-03T09:31:06;2.30;;;1.40;;
39078;SDS011;24829;49.208;12.080;2022-07-03T09:33:32;1.98;;;1.30;;
39078;SDS011;24829;49.208;12.080;2022-07-03T09:35:58;6.15;;;1.30;;
39078;SDS011;24829;49.208;12.080;2022-07-03T09:38:24;3.08;;;1.25;;
39078;SDS011;24829;49.208;12.080;2022-07-03T09:43:28;5.07;;;1.17;;
39078;SDS011;24829;49.208;12.080;2022-07-03T09:48:21;1.75;;;1.10;;
39078;SDS011;24829;49.208;12.080;2022-07-03T09:53:48;1.92;;;1.17;;
39078;SDS011;24829;49.208;12.080;2022-07-03T09:56:25;2.47;;;1.10;;
39078;SDS011;24829;49.208;12.080;2022-07-03T09:59:09;3.15;;;1.00;;
39078;SDS011;24829;49.208;12.080;2022-07-03T10:01:35;1.35;;;1.00;;
39078;SDS011;24829;49.208;12.080;2022-07-03T10:04:09;2.05;;;1.10;;
39078;SDS011;24829;49.208;12.080;2022-07-03T10:06:47;1.80;;;1.42;;
39078;SDS011;24829;49.208;12.080;2022-07-03T10:09:21;1.38;;;1.00;;
39078;SDS011;24829;49.208;12.080;2022-07-03T10:11:48;1.67;;;1.20;;
39078;SDS011;24829;49.208;12.080;2022-07-03T10:14:15;1.35;;;0.90;;
39078;SDS011;24829;49.208;12.080;2022-07-03T10:16:45;2.47;;;1.10;;
39078;SDS011;24829;49.208;12.080;2022-07-03T10:19:12;1.52;;;0.95;;
39078;SDS011;24829;49.208;12.080;2022-07-03T10:21:40;3.05;;;1.10;;
39078;SDS011;24829;49.208;12.080;2022-07-03T10:24:07;2.72;;;1.08;;
39078;SDS011;24829;49.208;12.080;2022-07-03T10:26:33;3.67;;;1.00;;
39078;SDS011;24829;49.208;12.080;2022-07-03T10:29:00;2.40;;;0.93;;
39078;SDS011;24829;49.208;12.080;2022-07-03T10:31:27;1.60;;;0.93;;
39078;SDS011;24829;49.208;12.080;2022-07-03T10:33:53;1.67;;;1.00;;
39078;SDS011;24829;49.208;12.080;2022-07-03T10:36:19;1.25;;;0.90;;
39078;SDS011;24829;49.208;12.080;2022-07-03T10:38:46;1.20;;;0.80;;
39078;SDS011;24829;49.208;12.080;2022-07-03T10:41:19;1.98;;;0.93;;
39078;SDS011;24829;49.208;12.080;2022-07-03T10:44:09;5.07;;;1.30;;
39078;SDS011;24829;49.208;12.080;2022-07-03T10:46:56;2.70;;;1.25;;
39078;SDS011;24829;49.208;12.080;2022-07-03T10:49:22;1.73;;;0.90;;
39078;SDS011;24829;49.208;12.080;2022-07-03T10:51:51;3.90;;;1.00;;
39078;SDS011;24829;49.208;12.080;2022-07-03T10:54:31;4.35;;;0.90;;
39078;SDS011;24829;49.208;12.080;2022-07-03T11:07:26;1.92;;;1.10;;
39078;SDS011;24829;49.208;12.080;2022-07-03T11:15:24;1.35;;;0.90;;
39078;SDS011;24829;49.208;12.080;2022-07-03T11:25:48;1.73;;;1.00;;
39078;SDS011;24829;49.208;12.080;2022-07-03T11:33:45;2.92;;;0.80;;
39078;SDS011;24829;49.208;12.080;2022-07-03T11:38:40;2.13;;;0.80;;
39078;SDS011;24829;49.208;12.080;2022-07-03T11:41:07;0.90;;;0.68;;
39078;SDS011;24829;49.208;12.080;2022-07-03T11:43:34;1.15;;;0.85;;
39078;SDS011;24829;49.208;12.080;2022-07-03T11:45:59;2.80;;;0.90;;
39078;SDS011;24829;49.208;12.080;2022-07-03T11:48:26;0.73;;;0.70;;
39078;SDS011;24829;49.208;12.080;2022-07-03T11:50:52;2.03;;;0.88;;
39078;SDS011;24829;49.208;12.080;2022-07-03T11:53:33;3.38;;;0.70;;
39078;SDS011;24829;49.208;12.080;2022-07-03T11:56:07;2.72;;;1.10;;
39078;SDS011;24829;49.208;12.080;2022-07-03T11:58:46;3.78;;;0.80;;
39078;SDS011;24829;49.208;12.080;2022-07-03T12:03:52;1.58;;;0.80;;
39078;SDS011;24829;49.208;12.080;2022-07-03T12:06:19;1.88;;;1.00;;
39078;SDS011;24829;49.208;12.080;2022-07-03T12:08:45;2.38;;;0.80;;
39078;SDS011;24829;49.208;12.080;2022-07-03T12:11:13;2.83;;;0.80;;
39078;SDS011;24829;49.208;12.080;2022-07-03T12:13:40;1.15;;;0.63;;
39078;SDS011;24829;49.208;12.080;2022-07-03T12:16:07;1.52;;;0.77;;
39078;SDS011;24829;49.208;12.080;2022-07-03T12:18:53;0.80;;;0.60;;
39078;SDS011;24829;49.208;12.080;2022-07-03T12:21:20;2.38;;;0.50;;
39078;SDS011;24829;49.208;12.080;2022-07-03T12:23:50;1.27;;;0.68;;
39078;SDS011;24829;49.208;12.080;2022-07-03T12:26:27;1.15;;;0.80;;
39078;SDS011;24829;49.208;12.080;2022-07-03T12:28:54;3.92;;;0.73;;
39078;SDS011;24829;49.208;12.080;2022-07-03T12:31:20;2.47;;;1.02;;
39078;SDS011;24829;49.208;12.080;2022-07-03T12:33:46;1.63;;;0.70;;
39078;SDS011;24829;49.208;12.080;2022-07-03T12:36:12;2.20;;;0.60;;
39078;SDS011;24829;49.208;12.080;2022-07-03T12:38:38;2.10;;;0.70;;
39078;SDS011;24829;49.208;12.080;2022-07-03T12:41:05;1.23;;;0.60;;
39078;SDS011;24829;49.208;12.080;2022-07-03T12:43:39;0.60;;;0.50;;
39078;SDS011;24829;49.208;12.080;2022-07-03T12:49:10;1.50;;;0.60;;
39078;SDS011;24829;49.208;12.080;2022-07-03T12:51:49;1.15;;;0.60;;
39078;SDS011;24829;49.208;12.080;2022-07-03T12:54:21;0.80;;;0.60;;
39078;SDS011;24829;49.208;12.080;2022-07-03T12:57:10;1.65;;;0.50;;
39078;SDS011;24829;49.208;12.080;2022-07-03T13:00:00;0.60;;;0.60;;
39078;SDS011;24829;49.208;12.080;2022-07-03T13:02:28;1.05;;;0.65;;
39078;SDS011;24829;49.208;12.080;2022-07-03T13:04:54;2.03;;;0.60;;
39078;SDS011;24829;49.208;12.080;2022-07-03T13:07:19;2.47;;;0.52;;
39078;SDS011;24829;49.208;12.080;2022-07-03T13:09:51;3.10;;;0.65;;
39078;SDS011;24829;49.208;12.080;2022-07-03T13:12:21;1.70;;;0.52;;
39078;SDS011;24829;49.208;12.080;2022-07-03T13:15:00;0.70;;;0.63;;
39078;SDS011;24829;49.208;12.080;2022-07-03T13:20:20;0.68;;;0.60;;
39078;SDS011;24829;49.208;12.080;2022-07-03T13:22:47;2.10;;;0.68;;
39078;SDS011;24829;49.208;12.080;2022-07-03T13:25:13;1.60;;;1.00;;
39078;SDS011;24829;49.208;12.080;2022-07-03T13:27:38;1.40;;;0.60;;
39078;SDS011;24829;49.208;12.080;2022-07-03T13:30:04;0.63;;;0.50;;
39078;SDS011;24829;49.208;12.080;2022-07-03T13:32:30;0.70;;;0.60;;
39078;SDS011;24829;49.208;12.080;2022-07-03T13:34:55;2.15;;;0.43;;
39078;SDS011;24829;49.208;12.080;2022-07-03T13:37:21;4.82;;;0.50;;
39078;SDS011;24829;49.208;12.080;2022-07-03T13:39:46;2.75;;;0.60;;
39078;SDS011;24829;49.208;12.080;2022-07-03T13:42:12;1.15;;;0.60;;
39078;SDS011;24829;49.208;12.080;2022-07-03T13:44:37;1.85;;;0.55;;
39078;SDS011;24829;49.208;12.080;2022-07-03T13:47:04;2.90;;;0.47;;
39078;SDS011;24829;49.208;12.080;2022-07-03T13:49:30;1.00;;;0.50;;
39078;SDS011;24829;49.208;12.080;2022-07-03T13:51:56;0.40;;;0.40;;
39078;SDS011;24829;49.208;12.080;2022-07-03T13:54:22;2.25;;;0.50;;
39078;SDS011;24829;49.208;12.080;2022-07-03T13:56:47;0.50;;;0.40;;
39078;SDS011;24829;49.208;12.080;2022-07-03T13:59:13;0.52;;;0.43;;
39078;SDS011;24829;49.208;12.080;2022-07-03T14:01:39;3.13;;;0.40;;
39078;SDS011;24829;49.208;12.080;2022-07-03T14:04:04;2.30;;;0.60;;
39078;SDS011;24829;49.208;12.080;2022-07-03T14:06:30;0.60;;;0.40;;
39078;SDS011;24829;49.208;12.080;2022-07-03T14:08:56;0.40;;;0.30;;
39078;SDS011;24829;49.208;12.080;2022-07-03T14:11:21;0.45;;;0.40;;
39078;SDS011;24829;49.208;12.080;2022-07-03T14:13:47;1.70;;;0.40;;
39078;SDS011;24829;49.208;12.080;2022-07-03T14:16:12;1.05;;;0.50;;
39078;SDS011;24829;49.208;12.080;2022-07-03T14:18:38;2.20;;;1.80;;
39078;SDS011;24829;49.208;12.080;2022-07-03T14:21:03;0.80;;;0.47;;
39078;SDS011;24829;49.208;12.080;2022-07-03T14:23:31;0.45;;;0.30;;
39078;SDS011;24829;49.208;12.080;2022-07-03T14:25:57;0.70;;;0.40;;
39078;SDS011;24829;49.208;12.080;2022-07-03T14:28:23;3.40;;;0.65;;
39078;SDS011;24829;49.208;12.080;2022-07-03T14:31:08;0.80;;;0.30;;
39078;SDS011;24829;49.208;12.080;2022-07-03T14:33:48;0.75;;;0.30;;
39078;SDS011;24829;49.208;12.080;2022-07-03T14:36:15;0.77;;;0.30;;
39078;SDS011;24829;49.208;12.080;2022-07-03T14:38:41;0.28;;;0.20;;
39078;SDS011;24829;49.208;12.080;2022-07-03T14:41:06;1.63;;;0.20;;
39078;SDS011;24829;49.208;12.080;2022-07-03T14:43:32;0.20;;;0.20;;
39078;SDS011;24829;49.208;12.080;2022-07-03T14:45:57;0.40;;;0.20;;
39078;SDS011;24829;49.208;12.080;2022-07-03T14:48:23;0.20;;;0.20;;
39078;SDS011;24829;49.208;12.080;2022-07-03T14:50:49;1.73;;;0.20;;
39078;SDS011;24829;49.208;12.080;2022-07-03T14:53:15;0.40;;;0.35;;
39078;SDS011;24829;49.208;12.080;2022-07-03T14:55:41;0.20;;;0.20;;
39078;SDS011;24829;49.208;12.080;2022-07-03T15:00:33;0.20;;;0.20;;
39078;SDS011;24829;49.208;12.080;2022-07-03T15:03:06;1.25;;;0.10;;
39078;SDS011;24829;49.208;12.080;2022-07-03T15:05:33;0.70;;;0.20;;
39078;SDS011;24829;49.208;12.080;2022-07-03T15:10:32;0.93;;;0.30;;
39078;SDS011;24829;49.208;12.080;2022-07-03T15:13:00;2.20;;;0.65;;
39078;SDS011;24829;49.208;12.080;2022-07-03T15:15:27;1.80;;;0.20;;
39078;SDS011;24829;49.208;12.080;2022-07-03T15:17:55;1.85;;;0.20;;
39078;SDS011;24829;49.208;12.080;2022-07-03T15:20:23;2.53;;;0.30;;
39078;SDS011;24829;49.208;12.080;2022-07-03T15:22:54;2.38;;;0.28;;
39078;SDS011;24829;49.208;12.080;2022-07-03T15:25:20;0.57;;;0.38;;
39078;SDS011;24829;49.208;12.080;2022-07-03T15:27:51;0.82;;;0.30;;
39078;SDS011;24829;49.208;12.080;2022-07-03T15:30:18;2.85;;;0.20;;
39078;SDS011;24829;49.208;12.080;2022-07-03T15:32:45;0.40;;;0.30;;
39078;SDS011;24829;49.208;12.080;2022-07-03T15:35:12;1.30;;;0.70;;
39078;SDS011;24829;49.208;12.080;2022-07-03T15:40:46;0.68;;;0.40;;
39078;SDS011;24829;49.208;12.080;2022-07-03T15:54:10;0.20;;;0.20;;
39078;SDS011;24829;49.208;12.080;2022-07-03T15:56:45;1.25;;;0.30;;
39078;SDS011;24829;49.208;12.080;2022-07-03T15:59:18;0.20;;;0.15;;
39078;SDS011;24829;49.208;12.080;2022-07-03T16:01:52;1.42;;;0.30;;
39078;SDS011;24829;49.208;12.080;2022-07-03T16:07:28;2.33;;;0.40;;
39078;SDS011;24829;49.208;12.080;2022-07-03T16:09:57;0.52;;;0.30;;
39078;SDS011;24829;49.208;12.080;2022-07-03T16:12:24;0.93;;;0.38;;
39078;SDS011;24829;49.208;12.080;2022-07-03T16:14:50;0.60;;;0.30;;
39078;SDS011;24829;49.208;12.080;2022-07-03T16:17:16;1.30;;;0.20;;
39078;SDS011;24829;49.208;12.080;2022-07-03T16:19:47;2.40;;;0.40;;
39078;SDS011;24829;49.208;12.080;2022-07-03T16:22:13;2.55;;;0.50;;
39078;SDS011;24829;49.208;12.080;2022-07-03T16:24:40;1.40;;;0.30;;
39078;SDS011;24829;49.208;12.080;2022-07-03T16:27:07;0.82;;;0.40;;
39078;SDS011;24829;49.208;12.080;2022-07-03T16:29:40;0.20;;;0.20;;
39078;SDS011;24829;49.208;12.080;2022-07-03T16:32:06;0.55;;;0.20;;